sensor_id;sensor_type;location;lat;lon;timestamp;pressure;altitude;pressure_sealevel;temperature;humidity
65359;BME280;52491;45.900;6.346;2024-01-16T00:00:07;93029.47;;;23.41;24.80
65359;BME280;52491;45.900;6.346;2024-01-16T00:02:34;93032.94;;;23.41;24.81
65359;BME280;52491;45.900;6.346;2024-01-16T00:04:59;93032.13;;;23.41;24.76
65359;BME280;52491;45.900;6.346;2024-01-16T00:07:25;93029.22;;;23.37;24.85
65359;BME280;52491;45.900;6.346;2024-01-16T00:09:50;93029.75;;;23.39;24.75
65359;BME280;52491;45.900;6.346;2024-01-16T00:12:18;93027.38;;;23.38;24.85
65359;BME280;52491;45.900;6.346;2024-01-16T00:14:44;93030.03;;;23.38;24.86
65359;BME280;52491;45.900;6.346;2024-01-16T00:17:09;93026.88;;;23.36;24.83
65359;BME280;52491;45.900;6.346;2024-01-16T00:19:35;93023.38;;;23.35;24.80
65359;BME280;52491;45.900;6.346;2024-01-16T00:22:00;93027.91;;;23.35;24.66
65359;BME280;52491;45.900;6.346;2024-01-16T00:24:28;93028.22;;;23.33;24.59
65359;BME280;52491;45.900;6.346;2024-01-16T00:26:53;93031.13;;;23.32;24.67
65359;BME280;52491;45.900;6.346;2024-01-16T00:29:19;93022.38;;;23.31;24.65
65359;BME280;52491;45.900;6.346;2024-01-16T00:31:45;93024.22;;;23.31;24.64
65359;BME280;52491;45.900;6.346;2024-01-16T00:34:11;93022.63;;;23.30;24.72
65359;BME280;52491;45.900;6.346;2024-01-16T00:36:36;93021.06;;;23.29;24.55
65359;BME280;52491;45.900;6.346;2024-01-16T00:39:02;93024.78;;;23.28;24.60
65359;BME280;52491;45.900;6.346;2024-01-16T00:41:28;93011.50;;;23.28;24.55
65359;BME280;52491;45.900;6.346;2024-01-16T00:43:54;93013.34;;;23.27;24.59
65359;BME280;52491;45.900;6.346;2024-01-16T00:46:19;93014.41;;;23.26;24.55
65359;BME280;52491;45.900;6.346;2024-01-16T00:48:46;93020.53;;;23.27;24.63
65359;BME280;52491;45.900;6.346;2024-01-16T00:51:11;93005.91;;;23.24;24.71
65359;BME280;52491;45.900;6.346;2024-01-16T00:53:41;93011.75;;;23.26;24.46
65359;BME280;52491;45.900;6.346;2024-01-16T00:56:06;93004.03;;;23.24;24.52
65359;BME280;52491;45.900;6.346;2024-01-16T00:58:32;93011.22;;;23.24;24.48
65359;BME280;52491;45.900;6.346;2024-01-16T01:00:57;93007.78;;;23.23;24.54
65359;BME280;52491;45.900;6.346;2024-01-16T01:03:23;93007.00;;;23.23;24.67
65359;BME280;52491;45.900;6.346;2024-01-16T01:05:48;93013.41;;;23.22;24.46
65359;BME280;52491;45.900;6.346;2024-01-16T01:08:14;93007.25;;;23.21;24.52
65359;BME280;52491;45.900;6.346;2024-01-16T01:10:39;93005.69;;;23.20;24.51
65359;BME280;52491;45.900;6.346;2024-01-16T01:13:05;93002.50;;;23.18;24.56
65359;BME280;52491;45.900;6.346;2024-01-16T01:15:30;93007.81;;;23.18;24.39
65359;BME280;52491;45.900;6.346;2024-01-16T01:17:56;93016.56;;;23.19;24.42
65359;BME280;52491;45.900;6.346;2024-01-16T01:20:21;93011.25;;;23.19;24.38
65359;BME280;52491;45.900;6.346;2024-01-16T01:22:47;93008.09;;;23.17;24.41
65359;BME280;52491;45.900;6.346;2024-01-16T01:25:12;93002.78;;;23.17;24.47
65359;BME280;52491;45.900;6.346;2024-01-16T01:27:39;93007.31;;;23.16;24.30
65359;BME280;52491;45.900;6.346;2024-01-16T01:30:05;93011.56;;;23.17;24.44
65359;BME280;52491;45.900;6.346;2024-01-16T01:32:31;93018.75;;;23.17;24.42
65359;BME280;52491;45.900;6.346;2024-01-16T01:34:59;93013.69;;;23.15;24.37
65359;BME280;52491;45.900;6.346;2024-01-16T01:37:24;93012.09;;;23.14;24.37
65359;BME280;52491;45.900;6.346;2024-01-16T01:39:50;93015.81;;;23.13;24.41
65359;BME280;52491;45.900;6.346;2024-01-16T01:42:15;93027.28;;;23.14;24.47
65359;BME280;52491;45.900;6.346;2024-01-16T01:44:41;93025.66;;;23.13;24.32
65359;BME280;52491;45.900;6.346;2024-01-16T01:47:07;93026.44;;;23.13;24.26
65359;BME280;52491;45.900;6.346;2024-01-16T01:49:34;93033.63;;;23.13;24.34
65359;BME280;52491;45.900;6.346;2024-01-16T01:52:00;93035.50;;;23.12;24.30
65359;BME280;52491;45.900;6.346;2024-01-16T01:54:26;93033.63;;;23.13;24.35
65359;BME280;52491;45.900;6.346;2024-01-16T01:56:52;93040.81;;;23.12;24.35
65359;BME280;52491;45.900;6.346;2024-01-16T01:59:19;93034.72;;;23.12;24.20
65359;BME280;52491;45.900;6.346;2024-01-16T02:01:48;93028.09;;;23.09;24.39
65359;BME280;52491;45.900;6.346;2024-01-16T02:04:17;93021.97;;;23.09;24.31
65359;BME280;52491;45.900;6.346;2024-01-16T02:06:43;93018.78;;;23.07;24.45
65359;BME280;52491;45.900;6.346;2024-01-16T02:09:10;93025.97;;;23.06;24.34
65359;BME280;52491;45.900;6.346;2024-01-16T02:11:39;93016.91;;;23.07;24.27
65359;BME280;52491;45.900;6.346;2024-01-16T02:14:04;93018.78;;;23.07;24.14
65359;BME280;52491;45.900;6.346;2024-01-16T02:16:36;93013.47;;;23.07;24.53
65359;BME280;52491;45.900;6.346;2024-01-16T02:19:02;93018.25;;;23.05;24.20
65359;BME280;52491;45.900;6.346;2024-01-16T02:21:28;93011.38;;;23.04;24.21
65359;BME280;52491;45.900;6.346;2024-01-16T02:23:57;93019.34;;;23.04;24.31
65359;BME280;52491;45.900;6.346;2024-01-16T02:26:22;93015.91;;;23.03;24.29
65359;BME280;52491;45.900;6.346;2024-01-16T02:28:48;93017.75;;;23.03;24.27
65359;BME280;52491;45.900;6.346;2024-01-16T02:31:13;93024.41;;;23.00;24.35
65359;BME280;52491;45.900;6.346;2024-01-16T02:33:39;93026.28;;;22.99;24.23
65359;BME280;52491;45.900;6.346;2024-01-16T02:36:05;93018.56;;;22.98;24.23
65359;BME280;52491;45.900;6.346;2024-01-16T02:38:30;93019.38;;;22.98;24.27
65359;BME280;52491;45.900;6.346;2024-01-16T02:40:56;93030.78;;;22.99;24.29
65359;BME280;52491;45.900;6.346;2024-01-16T02:43:21;93039.84;;;22.98;24.19
65359;BME280;52491;45.900;6.346;2024-01-16T02:45:47;93037.19;;;22.98;24.30
65359;BME280;52491;45.900;6.346;2024-01-16T02:48:13;93034.53;;;22.98;24.21
65359;BME280;52491;45.900;6.346;2024-01-16T02:50:38;93038.25;;;22.97;24.30
65359;BME280;52491;45.900;6.346;2024-01-16T02:53:04;93032.94;;;22.97;24.14
65359;BME280;52491;45.900;6.346;2024-01-16T02:55:29;93043.28;;;22.98;24.25
65359;BME280;52491;45.900;6.346;2024-01-16T02:57:55;93037.19;;;22.98;24.13
65359;BME280;52491;45.900;6.346;2024-01-16T03:00:20;93035.59;;;22.97;24.19
65359;BME280;52491;45.900;6.346;2024-01-16T03:02:47;93029.72;;;22.95;24.27
65359;BME280;52491;45.900;6.346;2024-01-16T03:05:13;93031.06;;;22.92;24.14
65359;BME280;52491;45.900;6.346;2024-01-16T03:07:40;93039.56;;;22.94;24.29
65359;BME280;52491;45.900;6.346;2024-01-16T03:10:06;93035.59;;;22.97;24.19
65359;BME280;52491;45.900;6.346;2024-01-16T03:12:32;93035.59;;;22.97;24.22
65359;BME280;52491;45.900;6.346;2024-01-16T03:14:57;93035.88;;;22.95;24.18
65359;BME280;52491;45.900;6.346;2024-01-16T03:17:23;93043.00;;;22.95;24.20
65359;BME280;52491;45.900;6.346;2024-01-16T03:19:48;93046.50;;;22.95;24.19
65359;BME280;52491;45.900;6.346;2024-01-16T03:22:14;93046.50;;;22.95;24.19
65359;BME280;52491;45.900;6.346;2024-01-16T03:24:39;93039.31;;;22.96;24.12
65359;BME280;52491;45.900;6.346;2024-01-16T03:27:05;93043.00;;;22.95;24.11
65359;BME280;52491;45.900;6.346;2024-01-16T03:29:31;93044.09;;;22.94;24.20
65359;BME280;52491;45.900;6.346;2024-01-16T03:31:58;93038.78;;;22.94;24.17
65359;BME280;52491;45.900;6.346;2024-01-16T03:34:23;93035.31;;;22.93;24.17
65359;BME280;52491;45.900;6.346;2024-01-16T03:36:49;93035.31;;;22.93;24.14
65359;BME280;52491;45.900;6.346;2024-01-16T03:39:15;93036.38;;;22.92;24.08
65359;BME280;52491;45.900;6.346;2024-01-16T03:41:40;93032.66;;;22.93;24.09
65359;BME280;52491;45.900;6.346;2024-01-16T03:44:06;93027.31;;;22.93;24.04
65359;BME280;52491;45.900;6.346;2024-01-16T03:46:31;93027.31;;;22.93;24.16
65359;BME280;52491;45.900;6.346;2024-01-16T03:48:56;93022.84;;;22.94;24.17
65359;BME280;52491;45.900;6.346;2024-01-16T03:51:22;93025.50;;;22.94;24.13
65359;BME280;52491;45.900;6.346;2024-01-16T03:53:47;93028.94;;;22.94;24.17
65359;BME280;52491;45.900;6.346;2024-01-16T03:56:14;93015.38;;;22.96;24.08
65359;BME280;52491;45.900;6.346;2024-01-16T03:58:40;93005.00;;;22.94;24.08
65359;BME280;52491;45.900;6.346;2024-01-16T04:01:07;93008.47;;;22.95;24.03
65359;BME280;52491;45.900;6.346;2024-01-16T04:03:32;93002.34;;;22.94;23.99
65359;BME280;52491;45.900;6.346;2024-01-16T04:05:58;93008.19;;;22.96;24.07
65359;BME280;52491;45.900;6.346;2024-01-16T04:08:23;93007.41;;;22.96;24.13
65359;BME280;52491;45.900;6.346;2024-01-16T04:10:49;93008.19;;;22.96;24.08
65359;BME280;52491;45.900;6.346;2024-01-16T04:13:14;93004.75;;;22.96;24.12
65359;BME280;52491;45.900;6.346;2024-01-16T04:15:40;92999.44;;;22.96;24.18
65359;BME280;52491;45.900;6.346;2024-01-16T04:18:06;92994.91;;;22.96;24.07
65359;BME280;52491;45.900;6.346;2024-01-16T04:20:32;92990.41;;;22.97;24.02
65359;BME280;52491;45.900;6.346;2024-01-16T04:22:57;92985.88;;;22.97;23.97
65359;BME280;52491;45.900;6.346;2024-01-16T04:25:23;92991.19;;;22.97;23.96
65359;BME280;52491;45.900;6.346;2024-01-16T04:27:49;92985.09;;;22.97;24.08
65359;BME280;52491;45.900;6.346;2024-01-16T04:30:16;92988.53;;;22.97;23.94
65359;BME280;52491;45.900;6.346;2024-01-16T04:32:41;92985.88;;;22.97;24.04
65359;BME280;52491;45.900;6.346;2024-01-16T04:35:07;92991.19;;;22.97;23.99
65359;BME280;52491;45.900;6.346;2024-01-16T04:37:33;92986.16;;;22.96;23.94
65359;BME280;52491;45.900;6.346;2024-01-16T04:39:58;92982.44;;;22.97;24.04
65359;BME280;52491;45.900;6.346;2024-01-16T04:42:25;92986.69;;;22.98;23.90
65359;BME280;52491;45.900;6.346;2024-01-16T04:44:50;92990.41;;;22.97;24.02
65359;BME280;52491;45.900;6.346;2024-01-16T04:47:16;92982.44;;;22.97;23.96
65359;BME280;52491;45.900;6.346;2024-01-16T04:49:42;92990.13;;;22.98;23.83
65359;BME280;52491;45.900;6.346;2024-01-16T04:52:08;92985.88;;;22.97;23.89
65359;BME280;52491;45.900;6.346;2024-01-16T04:54:33;92977.91;;;22.97;23.88
65359;BME280;52491;45.900;6.346;2024-01-16T04:56:59;92985.09;;;22.97;23.89
65359;BME280;52491;45.900;6.346;2024-01-16T04:59:24;92976.31;;;22.96;23.49
65359;BME280;52491;45.900;6.346;2024-01-16T05:01:50;92972.59;;;22.97;23.99
65359;BME280;52491;45.900;6.346;2024-01-16T05:04:16;92966.19;;;22.98;23.87
65359;BME280;52491;45.900;6.346;2024-01-16T05:06:41;92961.69;;;22.99;23.94
65359;BME280;52491;45.900;6.346;2024-01-16T05:09:07;92962.50;;;22.99;23.92
65359;BME280;52491;45.900;6.346;2024-01-16T05:11:34;92960.34;;;23.01;23.84
65359;BME280;52491;45.900;6.346;2024-01-16T05:14:00;92960.84;;;23.04;24.06
65359;BME280;52491;45.900;6.346;2024-01-16T05:16:25;92957.66;;;23.07;24.22
65359;BME280;52491;45.900;6.346;2024-01-16T05:18:52;92965.34;;;23.08;24.21
65359;BME280;52491;45.900;6.346;2024-01-16T05:21:17;92966.41;;;23.07;24.34
65359;BME280;52491;45.900;6.346;2024-01-16T05:23:43;92961.88;;;23.08;24.64
65359;BME280;52491;45.900;6.346;2024-01-16T05:26:08;92952.84;;;23.09;24.58
65359;BME280;52491;45.900;6.346;2024-01-16T05:28:34;92953.91;;;23.08;24.65
65359;BME280;52491;45.900;6.346;2024-01-16T05:31:00;92957.66;;;23.07;24.75
65359;BME280;52491;45.900;6.346;2024-01-16T05:33:25;92951.53;;;23.06;24.66
65359;BME280;52491;45.900;6.346;2024-01-16T05:35:51;92950.19;;;23.09;24.61
65359;BME280;52491;45.900;6.346;2024-01-16T05:38:16;92950.97;;;23.09;24.58
65359;BME280;52491;45.900;6.346;2024-01-16T05:40:42;92946.47;;;23.10;24.61
65359;BME280;52491;45.900;6.346;2024-01-16T05:43:07;92941.94;;;23.10;24.52
65359;BME280;52491;45.900;6.346;2024-01-16T05:45:33;92949.63;;;23.12;24.69
65359;BME280;52491;45.900;6.346;2024-01-16T05:47:58;92955.22;;;23.10;24.59
65359;BME280;52491;45.900;6.346;2024-01-16T05:50:24;92947.53;;;23.09;24.58
65359;BME280;52491;45.900;6.346;2024-01-16T05:52:50;92955.50;;;23.09;24.44
65359;BME280;52491;45.900;6.346;2024-01-16T05:55:15;92953.91;;;23.08;24.49
65359;BME280;52491;45.900;6.346;2024-01-16T05:57:41;92957.09;;;23.10;24.46
65359;BME280;52491;45.900;6.346;2024-01-16T06:00:09;92947.53;;;23.09;24.31
65359;BME280;52491;45.900;6.346;2024-01-16T06:02:34;92953.13;;;23.07;23.79
65359;BME280;52491;45.900;6.346;2024-01-16T06:05:00;92953.97;;;23.03;23.56
65359;BME280;52491;45.900;6.346;2024-01-16T06:07:25;92952.66;;;23.00;23.75
65359;BME280;52491;45.900;6.346;2024-01-16T06:09:51;92961.69;;;22.99;23.34
65359;BME280;52491;45.900;6.346;2024-01-16T06:12:17;92951.34;;;22.97;23.46
65359;BME280;52491;45.900;6.346;2024-01-16T06:14:42;92955.03;;;22.96;23.50
65359;BME280;52491;45.900;6.346;2024-01-16T06:17:08;92956.91;;;22.96;23.60
65359;BME280;52491;45.900;6.346;2024-01-16T06:19:33;92958.78;;;22.95;23.71
65359;BME280;52491;45.900;6.346;2024-01-16T06:21:59;92970.19;;;22.96;23.54
65359;BME280;52491;45.900;6.346;2024-01-16T06:24:25;92966.75;;;22.95;23.48
65359;BME280;52491;45.900;6.346;2024-01-16T06:26:51;92964.88;;;22.96;23.61
65359;BME280;52491;45.900;6.346;2024-01-16T06:29:16;92976.31;;;22.96;23.61
65359;BME280;52491;45.900;6.346;2024-01-16T06:31:42;92966.50;;;22.97;23.68
65359;BME280;52491;45.900;6.346;2024-01-16T06:34:07;92963.84;;;22.97;23.78
65359;BME280;52491;45.900;6.346;2024-01-16T06:36:34;92960.09;;;22.98;23.51
65359;BME280;52491;45.900;6.346;2024-01-16T06:38:59;92958.53;;;22.97;23.59
65359;BME280;52491;45.900;6.346;2024-01-16T06:41:25;92955.84;;;22.97;23.57
65359;BME280;52491;45.900;6.346;2024-01-16T06:43:50;92966.50;;;22.97;23.61
65359;BME280;52491;45.900;6.346;2024-01-16T06:46:16;92961.97;;;22.97;23.73
65359;BME280;52491;45.900;6.346;2024-01-16T06:48:41;92969.94;;;22.97;23.72
65359;BME280;52491;45.900;6.346;2024-01-16T06:51:07;92969.94;;;22.97;23.70
65359;BME280;52491;45.900;6.346;2024-01-16T06:53:33;92975.25;;;22.97;23.76
65359;BME280;52491;45.900;6.346;2024-01-16T06:56:00;92975.78;;;22.99;23.76
65359;BME280;52491;45.900;6.346;2024-01-16T06:58:25;92974.69;;;23.00;23.88
65359;BME280;52491;45.900;6.346;2024-01-16T07:00:51;92976.03;;;23.03;23.82
65359;BME280;52491;45.900;6.346;2024-01-16T07:03:16;92971.75;;;23.02;23.94
65359;BME280;52491;45.900;6.346;2024-01-16T07:05:42;92976.28;;;23.01;23.96
65359;BME280;52491;45.900;6.346;2024-01-16T07:08:08;92971.75;;;23.02;23.98
65359;BME280;52491;45.900;6.346;2024-01-16T07:10:34;92973.91;;;23.00;23.98
65359;BME280;52491;45.900;6.346;2024-01-16T07:13:01;92972.31;;;22.99;23.96
65359;BME280;52491;45.900;6.346;2024-01-16T07:15:27;92979.22;;;23.00;24.02
65359;BME280;52491;45.900;6.346;2024-01-16T07:17:52;92973.38;;;22.98;24.06
65359;BME280;52491;45.900;6.346;2024-01-16T07:20:18;92971.50;;;22.98;24.08
65359;BME280;52491;45.900;6.346;2024-01-16T07:22:43;92984.03;;;22.98;24.18
65359;BME280;52491;45.900;6.346;2024-01-16T07:25:09;92977.91;;;22.97;24.06
65359;BME280;52491;45.900;6.346;2024-01-16T07:27:35;92975.50;;;22.96;24.12
65359;BME280;52491;45.900;6.346;2024-01-16T07:30:03;92975.50;;;22.96;23.99
65359;BME280;52491;45.900;6.346;2024-01-16T07:32:29;92978.97;;;22.96;23.97
65359;BME280;52491;45.900;6.346;2024-01-16T07:34:55;92973.91;;;22.95;24.00
65359;BME280;52491;45.900;6.346;2024-01-16T07:37:20;92972.59;;;22.92;23.96
65359;BME280;52491;45.900;6.346;2024-01-16T07:39:46;92982.97;;;22.94;24.13
65359;BME280;52491;45.900;6.346;2024-01-16T07:42:12;92989.31;;;22.93;23.88
65359;BME280;52491;45.900;6.346;2024-01-16T07:44:37;92998.09;;;22.93;23.83
65359;BME280;52491;45.900;6.346;2024-01-16T07:47:03;93001.81;;;22.92;24.13
65359;BME280;52491;45.900;6.346;2024-01-16T07:49:28;92992.28;;;22.91;23.91
65359;BME280;52491;45.900;6.346;2024-01-16T07:51:54;92988.00;;;22.90;23.90
65359;BME280;52491;45.900;6.346;2024-01-16T07:54:20;92983.78;;;22.89;23.84
65359;BME280;52491;45.900;6.346;2024-01-16T07:56:45;92998.63;;;22.90;24.02
65359;BME280;52491;45.900;6.346;2024-01-16T07:59:11;92990.66;;;22.90;23.86
65359;BME280;52491;45.900;6.346;2024-01-16T08:01:36;92995.19;;;22.90;23.78
65359;BME280;52491;45.900;6.346;2024-01-16T08:04:03;92996.28;;;22.89;23.90
65359;BME280;52491;45.900;6.346;2024-01-16T08:06:29;93002.38;;;22.89;23.80
65359;BME280;52491;45.900;6.346;2024-01-16T08:08:54;92995.47;;;22.88;23.79
65359;BME280;52491;45.900;6.346;2024-01-16T08:11:20;92998.16;;;22.88;23.78
65359;BME280;52491;45.900;6.346;2024-01-16T08:13:46;92996.53;;;22.87;23.84
65359;BME280;52491;45.900;6.346;2024-01-16T08:16:11;92994.16;;;22.86;23.56
65359;BME280;52491;45.900;6.346;2024-01-16T08:18:36;92988.84;;;22.86;23.86
65359;BME280;52491;45.900;6.346;2024-01-16T08:21:02;92995.75;;;22.87;23.75
65359;BME280;52491;45.900;6.346;2024-01-16T08:23:28;93001.06;;;22.87;23.87
65359;BME280;52491;45.900;6.346;2024-01-16T08:25:53;92997.09;;;22.84;23.83
65359;BME280;52491;45.900;6.346;2024-01-16T08:28:19;93005.06;;;22.84;23.81
65359;BME280;52491;45.900;6.346;2024-01-16T08:30:44;92999.22;;;22.82;23.78
65359;BME280;52491;45.900;6.346;2024-01-16T08:33:11;92996.28;;;22.84;23.64
65359;BME280;52491;45.900;6.346;2024-01-16T08:35:37;93000.81;;;22.83;23.69
65359;BME280;52491;45.900;6.346;2024-01-16T08:38:03;92989.41;;;22.83;23.70
65359;BME280;52491;45.900;6.346;2024-01-16T08:40:28;92997.38;;;22.83;23.64
65359;BME280;52491;45.900;6.346;2024-01-16T08:42:54;92997.63;;;22.81;23.54
65359;BME280;52491;45.900;6.346;2024-01-16T08:45:22;92998.44;;;22.82;23.55
65359;BME280;52491;45.900;6.346;2024-01-16T08:47:48;93005.59;;;22.81;23.66
65359;BME280;52491;45.900;6.346;2024-01-16T08:50:14;93002.94;;;22.81;23.60
65359;BME280;52491;45.900;6.346;2024-01-16T08:52:40;93004.03;;;22.80;23.69
65359;BME280;52491;45.900;6.346;2024-01-16T08:55:06;93011.19;;;22.79;23.70
65359;BME280;52491;45.900;6.346;2024-01-16T08:57:31;93012.25;;;22.78;23.67
65359;BME280;52491;45.900;6.346;2024-01-16T08:59:57;93008.81;;;22.78;23.77
65359;BME280;52491;45.900;6.346;2024-01-16T09:02:23;93013.34;;;22.77;23.68
65359;BME280;52491;45.900;6.346;2024-01-16T09:04:49;93019.16;;;22.79;23.59
65359;BME280;52491;45.900;6.346;2024-01-16T09:07:18;93019.16;;;22.79;23.54
65359;BME280;52491;45.900;6.346;2024-01-16T09:09:44;93016.78;;;22.78;23.62
65359;BME280;52491;45.900;6.346;2024-01-16T09:12:10;93014.91;;;22.78;23.55
65359;BME280;52491;45.900;6.346;2024-01-16T09:14:35;93009.91;;;22.77;23.56
65359;BME280;52491;45.900;6.346;2024-01-16T09:17:01;93012.03;;;22.75;23.62
65359;BME280;52491;45.900;6.346;2024-01-16T09:19:26;93009.06;;;22.76;23.45
65359;BME280;52491;45.900;6.346;2024-01-16T09:21:52;93006.41;;;22.76;23.49
65359;BME280;52491;45.900;6.346;2024-01-16T09:24:17;93001.09;;;22.76;23.46
65359;BME280;52491;45.900;6.346;2024-01-16T09:26:44;93009.91;;;22.77;23.59
65359;BME280;52491;45.900;6.346;2024-01-16T09:29:10;93006.41;;;22.76;23.49
65359;BME280;52491;45.900;6.346;2024-01-16T09:31:35;93015.22;;;22.77;23.44
65359;BME280;52491;45.900;6.346;2024-01-16T09:34:02;93017.31;;;22.80;23.47
65359;BME280;52491;45.900;6.346;2024-01-16T09:36:29;93022.34;;;22.82;23.57
65359;BME280;52491;45.900;6.346;2024-01-16T09:38:54;93023.94;;;22.83;23.55
65359;BME280;52491;45.900;6.346;2024-01-16T09:41:20;93028.44;;;22.82;23.49
65359;BME280;52491;45.900;6.346;2024-01-16T09:43:47;93026.84;;;22.86;23.52
65359;BME280;52491;45.900;6.346;2024-01-16T09:46:14;93025.78;;;22.87;23.50
65359;BME280;52491;45.900;6.346;2024-01-16T09:48:41;93032.41;;;22.90;23.40
65359;BME280;52491;45.900;6.346;2024-01-16T09:51:10;93039.03;;;22.92;23.53
65359;BME280;52491;45.900;6.346;2024-01-16T09:53:41;93036.13;;;22.94;23.55
65359;BME280;52491;45.900;6.346;2024-01-16T09:56:12;93030.53;;;22.95;23.50
65359;BME280;52491;45.900;6.346;2024-01-16T09:58:39;93043.56;;;22.97;23.52
65359;BME280;52491;45.900;6.346;2024-01-16T10:01:05;93056.31;;;23.00;23.49
65359;BME280;52491;45.900;6.346;2024-01-16T10:03:31;93051.00;;;23.00;23.61
65359;BME280;52491;45.900;6.346;2024-01-16T10:06:04;93057.63;;;23.03;23.52
65359;BME280;52491;45.900;6.346;2024-01-16T10:08:30;93053.34;;;23.07;23.64
65359;BME280;52491;45.900;6.346;2024-01-16T10:10:57;93039.78;;;23.08;23.65
65359;BME280;52491;45.900;6.346;2024-01-16T10:13:23;93036.84;;;23.10;23.45
65359;BME280;52491;45.900;6.346;2024-01-16T10:15:51;93033.63;;;23.13;23.48
65359;BME280;52491;45.900;6.346;2024-01-16T10:18:24;93030.44;;;23.16;23.66
65359;BME280;52491;45.900;6.346;2024-01-16T10:20:50;93025.94;;;23.16;23.75
65359;BME280;52491;45.900;6.346;2024-01-16T10:23:32;93020.06;;;23.19;23.71
65359;BME280;52491;45.900;6.346;2024-01-16T10:26:09;93018.19;;;23.20;23.70
65359;BME280;52491;45.900;6.346;2024-01-16T10:28:44;93014.69;;;23.24;23.71
65359;BME280;52491;45.900;6.346;2024-01-16T10:31:11;93011.75;;;23.26;23.77
65359;BME280;52491;45.900;6.346;2024-01-16T10:33:37;93006.97;;;23.28;23.88
65359;BME280;52491;45.900;6.346;2024-01-16T10:36:14;93005.31;;;23.32;23.62
65359;BME280;52491;45.900;6.346;2024-01-16T10:38:43;93003.75;;;23.31;23.76
65359;BME280;52491;45.900;6.346;2024-01-16T10:41:10;93005.06;;;23.34;23.86
65359;BME280;52491;45.900;6.346;2024-01-16T10:43:36;93001.06;;;23.36;23.97
65359;BME280;52491;45.900;6.346;2024-01-16T10:46:16;92988.25;;;23.38;23.83
65359;BME280;52491;45.900;6.346;2024-01-16T10:48:58;92994.09;;;23.40;23.92
65359;BME280;52491;45.900;6.346;2024-01-16T10:51:26;92981.31;;;23.42;23.90
65359;BME280;52491;45.900;6.346;2024-01-16T10:56:29;92980.22;;;23.49;23.98
65359;BME280;52491;45.900;6.346;2024-01-16T10:59:01;92977.28;;;23.50;23.88
65359;BME280;52491;45.900;6.346;2024-01-16T11:01:32;92970.34;;;23.49;24.01
65359;BME280;52491;45.900;6.346;2024-01-16T11:03:58;92968.22;;;23.51;23.94
65359;BME280;52491;45.900;6.346;2024-01-16T11:06:26;92968.44;;;23.55;24.01
65359;BME280;52491;45.900;6.346;2024-01-16T11:08:54;92973.75;;;23.55;23.96
65359;BME280;52491;45.900;6.346;2024-01-16T11:11:20;92968.44;;;23.55;23.90
65359;BME280;52491;45.900;6.346;2024-01-16T11:13:48;92960.47;;;23.55;23.68
65359;BME280;52491;45.900;6.346;2024-01-16T11:16:15;92960.19;;;23.56;23.87
65359;BME280;52491;45.900;6.346;2024-01-16T11:18:41;92946.91;;;23.56;24.03
65359;BME280;52491;45.900;6.346;2024-01-16T11:21:12;92946.09;;;23.56;23.98
65359;BME280;52491;45.900;6.346;2024-01-16T11:23:39;92945.84;;;23.52;23.81
65359;BME280;52491;45.900;6.346;2024-01-16T11:26:26;92948.50;;;23.52;23.80
65359;BME280;52491;45.900;6.346;2024-01-16T11:28:53;92950.91;;;23.54;23.99
65359;BME280;52491;45.900;6.346;2024-01-16T11:31:28;92949.78;;;23.60;23.97
65359;BME280;52491;45.900;6.346;2024-01-16T11:33:55;92941.25;;;23.63;23.85
65359;BME280;52491;45.900;6.346;2024-01-16T11:36:50;92928.97;;;23.67;23.90
65359;BME280;52491;45.900;6.346;2024-01-16T11:39:22;92928.41;;;23.70;23.86
65359;BME280;52491;45.900;6.346;2024-01-16T11:47:07;92942.09;;;23.58;23.23
65359;BME280;52491;45.900;6.346;2024-01-16T11:49:37;92931.69;;;23.62;23.64
65359;BME280;52491;45.900;6.346;2024-01-16T11:52:03;92924.22;;;23.64;23.61
65359;BME280;52491;45.900;6.346;2024-01-16T11:54:28;92934.00;;;23.68;23.67
65359;BME280;52491;45.900;6.346;2024-01-16T12:00:01;92918.03;;;23.74;23.72
65359;BME280;52491;45.900;6.346;2024-01-16T12:02:49;92913.22;;;23.76;23.88
65359;BME280;52491;45.900;6.346;2024-01-16T12:05:16;92914.78;;;23.77;23.96
65359;BME280;52491;45.900;6.346;2024-01-16T12:07:50;92911.88;;;23.78;24.09
65359;BME280;52491;45.900;6.346;2024-01-16T12:10:16;92907.34;;;23.79;24.12
65359;BME280;52491;45.900;6.346;2024-01-16T12:12:43;92905.97;;;23.81;24.11
65359;BME280;52491;45.900;6.346;2024-01-16T12:15:16;92904.63;;;23.84;23.16
65359;BME280;52491;45.900;6.346;2024-01-16T12:20:21;92898.03;;;23.76;23.98
65359;BME280;52491;45.900;6.346;2024-01-16T12:23:00;92891.34;;;23.79;23.86
65359;BME280;52491;45.900;6.346;2024-01-16T12:25:28;92893.22;;;23.78;23.80
65359;BME280;52491;45.900;6.346;2024-01-16T12:27:56;92890.28;;;23.80;24.08
65359;BME280;52491;45.900;6.346;2024-01-16T12:30:35;92882.03;;;23.81;24.14
65359;BME280;52491;45.900;6.346;2024-01-16T12:33:07;92891.06;;;23.80;24.21
65359;BME280;52491;45.900;6.346;2024-01-16T12:35:37;92888.13;;;23.82;24.08
65359;BME280;52491;45.900;6.346;2024-01-16T12:38:04;92874.03;;;23.81;23.80
65359;BME280;52491;45.900;6.346;2024-01-16T12:40:39;92872.94;;;23.82;24.01
65359;BME280;52491;45.900;6.346;2024-01-16T12:43:08;92870.28;;;23.82;24.28
65359;BME280;52491;45.900;6.346;2024-01-16T12:45:36;92868.41;;;23.83;24.04
65359;BME280;52491;45.900;6.346;2024-01-16T12:48:02;92863.88;;;23.83;24.17
65359;BME280;52491;45.900;6.346;2024-01-16T12:50:32;92866.28;;;23.85;24.18
65359;BME280;52491;45.900;6.346;2024-01-16T12:53:08;92869.44;;;23.87;24.29
65359;BME280;52491;45.900;6.346;2024-01-16T12:55:38;92862.53;;;23.86;24.19
65359;BME280;52491;45.900;6.346;2024-01-16T12:58:22;92860.44;;;23.83;24.19
65359;BME280;52491;45.900;6.346;2024-01-16T13:00:50;92859.13;;;23.80;24.43
65359;BME280;52491;45.900;6.346;2024-01-16T13:03:18;92857.56;;;23.79;24.33
65359;BME280;52491;45.900;6.346;2024-01-16T13:05:44;92853.38;;;23.73;24.50
65359;BME280;52491;45.900;6.346;2024-01-16T13:08:17;92845.38;;;23.73;24.27
65359;BME280;52491;45.900;6.346;2024-01-16T13:10:44;92839.00;;;23.69;24.25